createdAt,value
2018-11-20T00:01:42.125Z,23.67
2018-11-20T00:07:16.596Z,27.67
2018-11-20T00:12:45.061Z,24.95
2018-11-20T00:18:06.181Z,26.00
2018-11-20T00:23:27.301Z,26.95
2018-11-20T00:28:39.499Z,27.15
2018-11-20T00:33:59.353Z,24.90
2018-11-20T00:39:33.822Z,25.37
2018-11-20T00:44:53.057Z,28.75
2018-11-20T00:50:05.950Z,27.87
2018-11-20T00:56:07.808Z,29.07
2018-11-20T01:01:33.822Z,30.50
2018-11-20T01:07:06.699Z,31.93
2018-11-20T01:12:27.475Z,35.03
2018-11-20T01:18:08.065Z,31.52
2018-11-20T01:23:36.424Z,30.80
2018-11-20T01:28:55.438Z,28.25
2018-11-20T01:34:16.310Z,31.48
2018-11-20T01:39:45.025Z,29.35
2018-11-20T01:45:06.251Z,33.50
2018-11-20T01:50:37.564Z,31.40
2018-11-20T01:55:58.358Z,32.95
2018-11-20T02:01:27.246Z,29.55
2018-11-20T02:06:48.450Z,37.75
2018-11-20T02:12:09.231Z,23.47
2018-11-20T02:17:53.089Z,33.85
2018-11-20T02:23:21.460Z,33.10
2018-11-20T02:28:42.522Z,35.00
2018-11-20T02:34:03.772Z,33.38
2018-11-20T02:39:25.824Z,26.37
2018-11-20T02:44:53.241Z,34.48
2018-11-20T02:50:14.149Z,37.40
2018-11-20T02:55:42.432Z,35.63
2018-11-20T03:01:11.262Z,35.85
2018-11-20T03:06:31.145Z,34.63
2018-11-20T03:12:02.249Z,31.87
2018-11-20T03:17:23.273Z,35.85
2018-11-20T03:22:44.330Z,33.33
2018-11-20T03:28:05.523Z,22.60
2018-11-20T03:33:25.612Z,30.85
2018-11-20T03:38:46.748Z,31.97
2018-11-20T03:44:14.867Z,29.87
2018-11-20T03:49:35.672Z,26.33
2018-11-20T03:54:48.196Z,33.18
2018-11-20T04:00:08.909Z,38.75
2018-11-20T04:05:40.337Z,27.82
2018-11-20T04:11:08.539Z,31.57
2018-11-20T04:16:36.535Z,35.48
2018-11-20T04:21:52.652Z,34.20
2018-11-20T04:27:17.604Z,31.85
2018-11-20T04:32:45.065Z,32.03
2018-11-20T04:38:00.452Z,30.17
2018-11-20T04:43:28.487Z,34.70
2018-11-20T04:48:46.812Z,30.20
2018-11-20T04:54:11.732Z,36.60
2018-11-20T04:59:36.702Z,35.88
2018-11-20T05:04:58.988Z,37.17
2018-11-20T05:10:11.901Z,29.82
2018-11-20T05:15:49.598Z,31.52
2018-11-20T05:21:21.011Z,37.70
2018-11-20T05:26:49.424Z,32.23
2018-11-20T05:32:18.691Z,33.10
2018-11-20T05:37:53.013Z,35.43
2018-11-20T05:43:33.339Z,31.60
2018-11-20T05:48:54.393Z,37.80
2018-11-20T05:54:15.188Z,35.75
2018-11-20T05:59:49.218Z,37.88
2018-11-20T06:05:20.413Z,39.03
2018-11-20T06:10:41.533Z,32.83
2018-11-20T06:16:02.360Z,33.13
2018-11-20T06:21:24.936Z,37.50
2018-11-20T06:26:49.805Z,33.13
2018-11-20T06:32:17.874Z,38.42
2018-11-20T06:37:38.787Z,39.85
2018-11-20T06:43:00.056Z,34.40
2018-11-20T06:48:37.736Z,39.90
2018-11-20T06:54:08.814Z,36.28
2018-11-20T06:59:39.825Z,33.30
2018-11-20T07:05:17.373Z,38.50
2018-11-20T07:10:38.682Z,34.55
2018-11-20T07:15:59.808Z,38.00
2018-11-20T07:21:12.523Z,35.92
2018-11-20T07:26:43.640Z,35.98
2018-11-20T07:32:07.511Z,42.62
2018-11-20T07:37:32.668Z,36.48
2018-11-20T07:43:04.277Z,32.35
2018-11-20T07:48:24.972Z,36.25
2018-11-20T07:53:49.928Z,38.45
2018-11-20T07:59:12.180Z,34.95
2018-11-20T08:04:33.386Z,36.40
2018-11-20T08:10:07.824Z,41.33
2018-11-20T08:15:33.086Z,35.25
2018-11-20T08:21:10.580Z,37.40
2018-11-20T08:26:34.838Z,47.40
2018-11-20T08:31:49.719Z,37.15
2018-11-20T08:37:17.786Z,35.70
2018-11-20T08:42:36.240Z,40.10
2018-11-20T08:47:56.297Z,42.70
2018-11-20T08:53:17.076Z,37.98
2018-11-20T08:58:37.873Z,37.33
2018-11-20T09:04:08.940Z,38.30
2018-11-20T09:09:43.454Z,39.18
2018-11-20T09:15:04.614Z,39.70
2018-11-20T09:20:25.504Z,39.58
2018-11-20T09:25:53.742Z,36.63
2018-11-20T09:31:13.995Z,35.08
2018-11-20T09:36:42.234Z,36.98
2018-11-20T09:42:11.828Z,40.48
2018-11-20T09:47:25.667Z,37.90
2018-11-20T09:52:50.838Z,37.17
2018-11-20T09:58:11.621Z,38.48
2018-11-20T10:03:26.319Z,38.95
2018-11-20T10:08:57.499Z,36.53
2018-11-20T10:14:25.296Z,39.70
2018-11-20T10:19:41.287Z,40.05
2018-11-20T10:25:02.086Z,40.80
2018-11-20T10:30:25.424Z,38.33
2018-11-20T10:35:56.913Z,33.50
2018-11-20T10:41:37.627Z,38.78
2018-11-20T10:46:55.989Z,40.50
2018-11-20T10:52:18.446Z,37.53
2018-11-20T10:57:39.987Z,39.08
2018-11-20T11:03:00.843Z,33.42
2018-11-20T11:08:21.828Z,39.45
2018-11-20T11:13:42.727Z,37.23
2018-11-20T11:19:05.323Z,39.65
2018-11-20T11:24:45.689Z,37.70
2018-11-20T11:30:10.524Z,40.05
2018-11-20T11:35:54.509Z,36.25
2018-11-20T11:41:25.741Z,36.23
2018-11-20T11:46:57.108Z,37.83
2018-11-20T11:52:25.520Z,38.75
2018-11-20T11:57:46.477Z,35.13
2018-11-20T12:08:28.924Z,34.78
2018-11-20T12:13:51.203Z,37.30
2018-11-20T12:19:12.505Z,36.17
2018-11-20T12:24:40.528Z,34.67
2018-11-20T12:30:13.441Z,36.70
2018-11-20T12:35:33.407Z,33.50
2018-11-20T12:40:53.650Z,31.10
2018-11-20T12:46:15.927Z,32.42
2018-11-20T12:51:36.796Z,27.80
2018-11-20T12:57:17.630Z,28.07
2018-11-20T13:02:55.254Z,25.08
2018-11-20T13:08:17.600Z,22.35
2018-11-20T13:13:33.284Z,29.25
2018-11-20T13:19:07.367Z,23.27
2018-11-20T13:24:41.678Z,25.72
2018-11-20T13:30:10.113Z,24.07
2018-11-20T13:35:31.041Z,23.87
2018-11-20T13:41:23.738Z,26.07
2018-11-20T13:46:46.760Z,24.77
2018-11-20T13:52:00.277Z,29.95
2018-11-20T13:57:18.981Z,28.42
2018-11-20T14:02:31.519Z,27.55
2018-11-20T14:07:52.642Z,26.15
2018-11-20T14:13:07.922Z,26.30
2018-11-20T14:18:36.834Z,24.90
2018-11-20T14:23:57.821Z,25.52
2018-11-20T14:29:18.693Z,23.65
2018-11-20T14:34:39.714Z,27.82
2018-11-20T14:40:02.006Z,28.80
2018-11-20T14:45:27.959Z,32.67
2018-11-20T14:51:05.782Z,28.23
2018-11-20T14:56:28.420Z,28.27
2018-11-20T15:01:50.615Z,30.43
2018-11-20T15:07:15.764Z,29.45
2018-11-20T15:12:36.982Z,35.88
2018-11-20T15:18:17.275Z,29.42
2018-11-20T15:23:26.205Z,32.95
2018-11-20T15:29:03.430Z,29.30
2018-11-20T15:34:40.705Z,30.37
2018-11-20T15:40:01.609Z,31.97
2018-11-20T15:45:26.694Z,29.63
2018-11-20T15:50:47.752Z,41.68
2018-11-20T15:56:25.002Z,40.75
2018-11-20T16:01:47.297Z,31.75
2018-11-20T16:07:13.948Z,36.03
2018-11-20T16:12:45.278Z,36.70
2018-11-20T16:18:10.266Z,32.75
2018-11-20T16:23:44.586Z,33.58
2018-11-20T16:29:12.633Z,38.67
2018-11-20T16:35:37.209Z,37.95
2018-11-20T16:40:53.796Z,35.50
2018-11-20T16:46:13.878Z,37.70
2018-11-20T16:51:35.964Z,35.25
2018-11-20T16:57:15.968Z,36.88
2018-11-20T17:02:36.065Z,37.90
2018-11-20T17:08:15.827Z,41.30
2018-11-20T17:18:04.457Z,33.73
2018-11-20T17:23:44.375Z,37.42
2018-11-20T17:29:08.509Z,31.50
2018-11-20T17:34:45.363Z,35.00
2018-11-20T17:40:06.881Z,31.52
2018-11-20T17:45:27.585Z,37.50
2018-11-20T17:50:49.141Z,34.35
2018-11-20T17:56:22.798Z,33.20
2018-11-20T18:01:43.267Z,35.90
2018-11-20T18:06:55.899Z,30.95
2018-11-20T18:12:09.471Z,30.88
2018-11-20T18:17:46.003Z,39.65
2018-11-20T18:23:25.695Z,35.15
2018-11-20T18:28:45.729Z,37.25
2018-11-20T18:34:24.824Z,34.90
2018-11-20T18:39:58.407Z,36.28
2018-11-20T18:45:18.587Z,37.08
2018-11-20T18:50:40.116Z,32.63
2018-11-20T18:56:00.378Z,33.63
2018-11-20T19:01:22.772Z,32.08
2018-11-20T19:07:02.372Z,33.50
2018-11-20T19:12:30.215Z,30.85
2018-11-20T19:18:03.780Z,36.05
2018-11-20T19:23:37.523Z,31.77
2018-11-20T19:29:04.863Z,32.48
2018-11-20T19:34:38.662Z,37.70
2018-11-20T19:40:12.349Z,29.60
2018-11-20T19:45:30.268Z,32.42
2018-11-20T19:50:44.378Z,34.25
2018-11-20T19:56:14.843Z,32.13
2018-11-20T20:01:30.201Z,34.35
2018-11-20T20:06:50.786Z,35.03
2018-11-20T20:12:15.179Z,30.57
2018-11-20T20:17:35.998Z,31.57
2018-11-20T20:22:47.661Z,31.40
2018-11-20T20:28:07.962Z,35.63
2018-11-20T20:33:27.973Z,34.27
2018-11-20T20:38:40.019Z,33.20
2018-11-20T20:43:59.069Z,33.45
2018-11-20T20:49:14.370Z,28.10
2018-11-20T20:54:41.709Z,27.90
2018-11-20T21:00:06.176Z,25.90
2018-11-20T21:05:46.139Z,32.20
2018-11-20T21:11:16.491Z,28.40
2018-11-20T21:16:44.148Z,34.33
2018-11-20T21:22:04.085Z,32.80
2018-11-20T21:27:22.357Z,29.57
2018-11-20T21:38:01.107Z,29.52
2018-11-20T21:43:21.444Z,32.25
2018-11-20T21:48:42.705Z,29.75
2018-11-20T21:54:10.630Z,36.75
2018-11-20T21:59:35.082Z,34.27
2018-11-20T22:04:55.083Z,31.50
2018-11-20T22:10:15.119Z,31.82
2018-11-20T22:15:42.571Z,29.82
2018-11-20T22:21:02.846Z,33.50
2018-11-20T22:26:33.095Z,32.03
2018-11-20T22:31:53.373Z,29.52
2018-11-20T22:37:10.285Z,35.68
2018-11-20T22:42:33.400Z,29.30
2018-11-20T22:47:52.893Z,37.45
2018-11-20T22:53:20.091Z,35.52
2018-11-20T22:58:27.265Z,32.38
2018-11-20T23:03:54.651Z,34.63
2018-11-20T23:08:56.600Z,37.13
2018-11-20T23:13:58.483Z,38.75
2018-11-20T23:19:00.505Z,36.93
2018-11-20T23:24:02.383Z,34.70
2018-11-20T23:29:04.319Z,35.33
2018-11-20T23:34:06.235Z,33.48
2018-11-20T23:39:08.797Z,37.10
2018-11-20T23:44:10.769Z,36.45
2018-11-20T23:49:15.464Z,33.58
2018-11-20T23:54:14.674Z,32.03
2018-11-20T23:59:17.036Z,33.63
